createdAt,value
2022-11-24T00:00:59.632Z,84.10
2022-11-24T00:01:59.665Z,84.27
2022-11-24T00:02:59.623Z,84.44
2022-11-24T00:03:59.588Z,84.79
2022-11-24T00:04:59.615Z,85.22
2022-11-24T00:05:59.590Z,85.31
2022-11-24T00:06:59.528Z,85.22
2022-11-24T00:07:59.542Z,85.40
2022-11-24T00:08:59.570Z,85.49
2022-11-24T00:10:00.445Z,85.49
2022-11-24T00:10:59.534Z,85.31
2022-11-24T00:12:00.368Z,85.40
2022-11-24T00:12:59.543Z,85.40
2022-11-24T00:13:59.496Z,85.66
2022-11-24T00:14:59.455Z,85.57
2022-11-24T00:15:59.451Z,85.49
2022-11-24T00:16:59.510Z,85.66
2022-11-24T00:17:59.477Z,85.75
2022-11-24T00:18:59.453Z,86.11
2022-11-24T00:19:59.457Z,86.20
2022-11-24T00:20:59.440Z,86.38
2022-11-24T00:21:59.431Z,86.92
2022-11-24T00:22:59.380Z,86.83
2022-11-24T00:23:59.364Z,86.74
2022-11-24T00:24:59.408Z,86.83
2022-11-24T00:25:59.351Z,87.01
2022-11-24T00:26:59.389Z,86.83
2022-11-24T00:27:59.337Z,87.10
2022-11-24T00:28:59.346Z,87.56
2022-11-24T00:29:59.330Z,87.10
2022-11-24T00:30:59.392Z,87.28
2022-11-24T00:31:59.363Z,87.28
2022-11-24T00:32:59.316Z,86.83
2022-11-24T00:33:59.268Z,86.92
2022-11-24T00:34:59.326Z,86.47
2022-11-24T00:35:59.277Z,86.83
2022-11-24T00:36:59.250Z,86.74
2022-11-24T00:37:59.307Z,87.10
2022-11-24T00:38:59.242Z,86.65
2022-11-24T00:39:59.212Z,86.83
2022-11-24T00:40:59.213Z,87.47
2022-11-24T00:41:59.224Z,87.10
2022-11-24T00:42:59.176Z,87.01
2022-11-24T00:43:59.201Z,87.28
2022-11-24T00:44:59.190Z,87.19
2022-11-24T00:45:59.234Z,87.65
2022-11-24T00:46:59.283Z,87.74
2022-11-24T00:47:59.149Z,87.74
2022-11-24T00:48:59.203Z,87.84
2022-11-24T00:49:59.177Z,88.02
2022-11-24T00:50:59.130Z,87.93
2022-11-24T00:51:59.145Z,88.11
2022-11-24T00:52:59.152Z,88.40
2022-11-24T00:53:59.144Z,88.40
2022-11-24T00:54:59.140Z,88.77
2022-11-24T00:55:59.054Z,88.58
2022-11-24T00:56:59.048Z,88.40
2022-11-24T00:57:59.022Z,88.58
2022-11-24T00:58:59.031Z,89.06
2022-11-24T00:59:59.023Z,88.49
2022-11-24T01:00:59.038Z,88.87
2022-11-24T01:01:59.062Z,89.35
2022-11-24T01:02:59.059Z,88.68
2022-11-24T01:03:59.003Z,89.25
2022-11-24T01:04:59.021Z,88.77
2022-11-24T01:05:58.977Z,88.77
2022-11-24T01:06:58.935Z,89.06
2022-11-24T01:07:58.949Z,88.77
2022-11-24T01:08:58.927Z,89.15
2022-11-24T01:09:58.936Z,89.44
2022-11-24T01:10:58.910Z,89.64
2022-11-24T01:11:58.916Z,89.54
2022-11-24T01:12:58.896Z,89.54
2022-11-24T01:13:58.923Z,89.73
2022-11-24T01:14:58.880Z,90.32
2022-11-24T01:15:58.918Z,90.32
2022-11-24T01:16:58.885Z,90.71
2022-11-24T01:17:58.830Z,91.21
2022-11-24T01:18:58.816Z,91.51
2022-11-24T01:19:58.911Z,91.21
2022-11-24T01:20:58.852Z,91.92
2022-11-24T01:21:58.828Z,92.22
2022-11-24T01:22:58.783Z,92.63
2022-11-24T01:23:58.842Z,92.74
2022-11-24T01:24:58.796Z,93.15
2022-11-24T01:25:58.773Z,93.89
2022-11-24T01:26:58.778Z,94.31
2022-11-24T01:27:58.742Z,94.64
2022-11-24T01:28:58.745Z,95.18
2022-11-24T01:29:58.790Z,94.64
2022-11-24T01:30:58.766Z,95.07
2022-11-24T01:31:58.696Z,95.18
2022-11-24T01:32:58.702Z,96.06
2022-11-24T01:33:58.738Z,93.93
2022-11-24T01:34:58.732Z,94.35
2022-11-24T01:35:58.666Z,94.25
2022-11-24T01:36:58.648Z,94.94
2022-11-24T01:37:58.681Z,94.68
2022-11-24T01:38:58.628Z,95.71
2022-11-24T01:39:58.617Z,96.10
2022-11-24T01:40:58.608Z,95.99
2022-11-24T01:41:58.611Z,97.17
2022-11-24T01:42:58.612Z,96.71
2022-11-24T01:43:58.605Z,97.11
2022-11-24T01:44:58.576Z,97.79
2022-11-24T01:45:58.672Z,98.08
2022-11-24T01:46:58.573Z,97.79
2022-11-24T01:47:58.591Z,97.85
2022-11-24T01:48:58.534Z,98.55
2022-11-24T01:49:58.520Z,99.08
2022-11-24T01:50:58.550Z,98.78
2022-11-24T01:51:58.519Z,99.14
2022-11-24T01:52:58.492Z,99.31
2022-11-24T01:53:58.559Z,99.49
2022-11-24T01:54:58.492Z,100.09
2022-11-24T01:55:58.466Z,100.88
2022-11-24T01:56:58.462Z,102.31
2022-11-24T01:57:58.461Z,102.12
2022-11-24T01:58:58.432Z,103.07
2022-11-24T01:59:58.478Z,103.97
2022-11-24T02:00:58.493Z,104.17
2022-11-24T02:01:58.475Z,104.17
2022-11-24T02:02:58.463Z,105.02
2022-11-24T02:03:58.393Z,105.15
2022-11-24T02:04:58.371Z,106.23
2022-11-24T02:05:58.380Z,107.12
2022-11-24T02:06:58.407Z,108.59
2022-11-24T02:07:58.364Z,110.32
2022-11-24T02:08:58.333Z,111.06
2022-11-24T02:09:58.335Z,112.86
2022-11-24T02:10:58.355Z,114.73
2022-11-24T02:11:58.321Z,115.85
2022-11-24T02:12:58.309Z,116.58
2022-11-24T02:13:58.286Z,116.83
2022-11-24T02:14:58.282Z,117.32
2022-11-24T02:15:58.330Z,117.32
2022-11-24T02:16:58.272Z,117.16
2022-11-24T02:17:58.251Z,117.32
2022-11-24T02:18:58.239Z,117.32
2022-11-24T02:19:58.298Z,116.75
2022-11-24T02:20:58.209Z,116.18
2022-11-24T02:21:58.275Z,116.01
2022-11-24T02:22:58.261Z,116.18
2022-11-24T02:23:58.191Z,116.42
2022-11-24T02:24:58.209Z,116.10
2022-11-24T02:25:58.181Z,116.75
2022-11-24T02:26:58.189Z,117.32
2022-11-24T02:27:58.276Z,118.67
2022-11-24T02:28:58.163Z,120.04
2022-11-24T02:29:58.206Z,120.64
2022-11-24T02:30:58.207Z,121.62
2022-11-24T02:31:58.149Z,122.69
2022-11-24T02:32:58.128Z,124.07
2022-11-24T02:33:58.100Z,124.53
2022-11-24T02:34:58.096Z,124.91
2022-11-24T02:35:58.071Z,125.85
2022-11-24T02:36:58.164Z,126.23
2022-11-24T02:37:58.056Z,125.66
2022-11-24T02:38:58.047Z,125.95
2022-11-24T02:39:58.046Z,125.76
2022-11-24T02:40:58.051Z,124.91
2022-11-24T02:41:58.042Z,124.16
2022-11-24T02:42:58.017Z,123.42
2022-11-24T02:43:57.993Z,122.69
2022-11-24T02:44:58.009Z,121.44
2022-11-24T02:45:58.031Z,120.21
2022-11-24T02:46:57.966Z,119.00
2022-11-24T02:47:58.015Z,118.07
2022-11-24T02:48:57.981Z,116.26
2022-11-24T02:49:57.933Z,115.13
2022-11-24T02:50:57.941Z,114.18
2022-11-24T02:51:57.931Z,113.71
2022-11-24T02:52:57.983Z,112.03
2022-11-24T02:53:57.926Z,110.98
2022-11-24T02:54:57.922Z,110.10
2022-11-24T02:55:57.898Z,108.73
2022-11-24T02:56:57.868Z,107.67
2022-11-24T02:57:57.853Z,106.84
2022-11-24T02:58:57.890Z,106.43
2022-11-24T02:59:57.834Z,105.29
2022-11-24T03:00:57.872Z,104.96
2022-11-24T03:01:57.917Z,103.97
2022-11-24T03:02:57.857Z,103.52
2022-11-24T03:03:57.827Z,102.81
2022-11-24T03:04:57.793Z,101.99
2022-11-24T03:05:57.806Z,101.19
2022-11-24T03:06:57.800Z,101.12
2022-11-24T03:07:57.769Z,100.57
2022-11-24T03:08:57.791Z,99.61
2022-11-24T03:09:57.734Z,99.97
2022-11-24T03:10:57.758Z,99.43
2022-11-24T03:11:57.760Z,99.02
2022-11-24T03:12:57.742Z,98.43
2022-11-24T03:13:57.717Z,97.56
2022-11-24T03:14:57.685Z,97.45
2022-11-24T03:15:57.709Z,97.74
2022-11-24T03:16:57.698Z,97.91
2022-11-24T03:17:57.656Z,97.39
2022-11-24T03:18:57.645Z,98.49
2022-11-24T03:20:01.518Z,97.22
2022-11-24T03:20:57.664Z,97.51
2022-11-24T03:21:57.610Z,96.26
2022-11-24T03:22:57.649Z,96.71
2022-11-24T03:23:57.620Z,96.94
2022-11-24T03:24:57.591Z,96.26
2022-11-24T03:25:57.576Z,96.10
2022-11-24T03:26:57.582Z,96.32
2022-11-24T03:27:57.651Z,96.21
2022-11-24T03:28:57.612Z,95.65
2022-11-24T03:29:57.578Z,95.11
2022-11-24T03:30:57.628Z,95.99
2022-11-24T03:31:57.515Z,95.54
2022-11-24T03:32:57.549Z,95.60
2022-11-24T03:33:57.543Z,96.04
2022-11-24T03:34:57.529Z,95.54
2022-11-24T03:35:57.484Z,95.27
2022-11-24T03:36:57.499Z,95.49
2022-11-24T03:37:57.474Z,94.78
2022-11-24T03:38:57.456Z,94.94
2022-11-24T03:39:57.473Z,95.33
2022-11-24T03:40:57.436Z,95.93
2022-11-24T03:41:57.459Z,95.44
2022-11-24T03:42:57.446Z,95.44
2022-11-24T03:43:57.449Z,96.54
2022-11-24T03:44:57.430Z,96.38
2022-11-24T03:45:57.406Z,96.43
2022-11-24T03:46:57.388Z,97.39
2022-11-24T03:47:57.366Z,97.51
2022-11-24T03:48:57.355Z,97.97
2022-11-24T03:49:57.384Z,97.68
2022-11-24T03:50:57.343Z,97.39
2022-11-24T03:51:57.413Z,97.00
2022-11-24T03:52:57.336Z,97.56
2022-11-24T03:53:57.313Z,97.51
2022-11-24T03:54:57.366Z,98.14
2022-11-24T03:55:57.337Z,98.14
2022-11-24T03:56:57.337Z,98.31
2022-11-24T03:57:57.269Z,98.26
2022-11-24T03:58:57.263Z,99.85
2022-11-24T03:59:57.252Z,99.97
2022-11-24T04:00:57.278Z,100.94
2022-11-24T04:01:57.336Z,100.88
2022-11-24T04:02:57.317Z,101.12
2022-11-24T04:03:57.207Z,101.87
2022-11-24T04:04:57.210Z,102.56
2022-11-24T04:05:57.200Z,102.69
2022-11-24T04:06:57.210Z,102.75
2022-11-24T04:07:57.206Z,102.75
2022-11-24T04:08:57.164Z,103.32
2022-11-24T04:09:57.175Z,103.84
2022-11-24T04:10:57.155Z,104.49
2022-11-24T04:11:57.148Z,104.36
2022-11-24T04:12:57.117Z,105.02
2022-11-24T04:13:57.118Z,105.49
2022-11-24T04:14:57.109Z,105.56
2022-11-24T04:15:57.196Z,106.23
2022-11-24T04:16:57.103Z,106.78
2022-11-24T04:17:57.076Z,107.19
2022-11-24T04:18:57.072Z,107.88
2022-11-24T04:19:57.049Z,108.45
2022-11-24T04:20:57.045Z,108.59
2022-11-24T04:21:57.044Z,109.38
2022-11-24T04:22:57.031Z,109.52
2022-11-24T04:23:57.027Z,110.03
2022-11-24T04:24:56.995Z,110.61
2022-11-24T04:25:57.034Z,110.91
2022-11-24T04:26:57.028Z,111.28
2022-11-24T04:27:56.982Z,111.95
2022-11-24T04:28:56.991Z,112.48
2022-11-24T04:29:56.967Z,113.33
2022-11-24T04:30:57.157Z,113.64
2022-11-24T04:31:56.928Z,113.56
2022-11-24T04:32:56.964Z,113.64
2022-11-24T04:33:56.917Z,113.17
2022-11-24T04:34:56.908Z,112.71
2022-11-24T04:35:56.933Z,112.86
2022-11-24T04:36:56.896Z,113.10
2022-11-24T04:37:56.866Z,113.95
2022-11-24T04:39:23.540Z,114.65
2022-11-24T04:39:56.857Z,114.73
2022-11-24T04:40:56.891Z,115.77
2022-11-24T04:41:56.881Z,116.01
2022-11-24T04:42:56.848Z,116.01
2022-11-24T04:43:56.832Z,115.77
2022-11-24T04:44:56.808Z,116.18
2022-11-24T04:45:56.814Z,115.85
2022-11-24T04:46:56.813Z,115.45
2022-11-24T04:47:56.773Z,115.45
2022-11-24T04:48:56.773Z,115.37
2022-11-24T04:49:56.745Z,115.69
2022-11-24T04:50:56.788Z,115.61
2022-11-24T04:51:56.747Z,115.77
2022-11-24T04:52:56.749Z,116.34
2022-11-24T04:53:56.729Z,116.75
2022-11-24T04:54:56.710Z,117.66
2022-11-24T04:55:56.696Z,118.24
2022-11-24T04:56:56.689Z,119.52
2022-11-24T04:57:56.696Z,120.21
2022-11-24T04:58:56.763Z,121.08
2022-11-24T04:59:56.686Z,121.71
2022-11-24T05:00:56.645Z,121.44
2022-11-24T05:01:56.702Z,121.71
2022-11-24T05:02:56.625Z,122.96
2022-11-24T05:03:56.676Z,123.06
2022-11-24T05:04:56.685Z,123.24
2022-11-24T05:05:56.596Z,124.25
2022-11-24T05:06:56.598Z,124.25
2022-11-24T05:07:56.660Z,124.07
2022-11-24T05:08:56.579Z,124.44
2022-11-24T05:09:59.513Z,124.44
2022-11-24T05:10:56.565Z,124.35
2022-11-24T05:11:56.543Z,123.97
2022-11-24T05:12:56.547Z,123.79
2022-11-24T05:13:56.535Z,124.53
2022-11-24T05:14:56.536Z,124.16
2022-11-24T05:15:56.619Z,124.44
2022-11-24T05:16:56.602Z,125.00
2022-11-24T05:17:56.503Z,125.47
2022-11-24T05:18:56.497Z,125.76
2022-11-24T05:19:56.451Z,126.71
2022-11-24T05:20:56.445Z,127.00
2022-11-24T05:21:56.496Z,128.28
2022-11-24T05:22:56.457Z,129.18
2022-11-24T05:23:56.412Z,130.60
2022-11-24T05:24:56.482Z,131.94
2022-11-24T05:25:56.471Z,132.89
2022-11-24T05:26:56.438Z,134.83
2022-11-24T05:27:56.394Z,136.49
2022-11-24T05:28:56.490Z,138.77
2022-11-24T05:29:56.385Z,141.49
2022-11-24T05:30:56.389Z,142.58
2022-11-24T05:31:56.382Z,143.32
2022-11-24T05:32:56.335Z,144.06
2022-11-24T05:33:56.425Z,145.20
2022-11-24T05:34:56.349Z,146.73
2022-11-24T05:35:56.355Z,148.04
2022-11-24T05:36:56.293Z,149.51
2022-11-24T05:37:56.345Z,151.27
2022-11-24T05:38:56.278Z,152.52
2022-11-24T05:39:56.309Z,153.93
2022-11-24T05:40:56.257Z,154.79
2022-11-24T05:41:56.261Z,156.69
2022-11-24T05:42:56.248Z,157.43
2022-11-24T05:43:56.236Z,158.03
2022-11-24T05:44:56.228Z,158.18
2022-11-24T05:45:56.213Z,157.43
2022-11-24T05:46:56.261Z,156.69
2022-11-24T05:47:56.189Z,156.25
2022-11-24T05:48:56.198Z,155.52
2022-11-24T05:49:56.172Z,154.65
2022-11-24T05:50:56.151Z,153.51
2022-11-24T05:51:56.176Z,152.52
2022-11-24T05:52:56.140Z,151.96
2022-11-24T05:53:56.176Z,152.10
2022-11-24T05:54:56.122Z,152.94
2022-11-24T05:55:56.103Z,154.08
2022-11-24T05:56:56.093Z,154.94
2022-11-24T05:57:56.088Z,155.37
2022-11-24T05:58:56.028Z,155.08
2022-11-24T05:59:56.093Z,155.81
2022-11-24T06:00:56.060Z,155.08
2022-11-24T06:01:56.233Z,154.79
2022-11-24T06:02:56.062Z,154.22
2022-11-24T06:03:56.025Z,153.51
2022-11-24T06:04:56.027Z,152.24
2022-11-24T06:05:56.173Z,151.27
2022-11-24T06:06:56.132Z,150.86
2022-11-24T06:07:56.208Z,149.91
2022-11-24T06:08:55.939Z,149.64
2022-11-24T06:09:56.042Z,148.97
2022-11-24T06:10:55.927Z,149.37
2022-11-24T06:11:55.892Z,148.17
2022-11-24T06:12:55.895Z,148.84
2022-11-24T06:13:55.924Z,148.97
2022-11-24T06:14:55.892Z,149.10
2022-11-24T06:15:55.874Z,149.37
2022-11-24T06:16:55.924Z,149.91
2022-11-24T06:17:55.897Z,149.37
2022-11-24T06:18:55.918Z,148.84
2022-11-24T06:19:55.810Z,147.78
2022-11-24T06:21:10.387Z,146.22
2022-11-24T06:21:55.792Z,144.94
2022-11-24T06:22:55.837Z,143.57
2022-11-24T06:23:55.836Z,141.61
2022-11-24T06:24:55.795Z,139.12
2022-11-24T06:25:55.776Z,137.28
2022-11-24T06:26:55.787Z,134.29
2022-11-24T06:27:55.732Z,132.79
2022-11-24T06:28:55.745Z,131.32
2022-11-24T06:29:55.731Z,129.78
2022-11-24T06:30:55.749Z,128.58
2022-11-24T06:31:55.741Z,127.00
2022-11-24T06:32:55.721Z,126.04
2022-11-24T06:33:55.738Z,124.91
2022-11-24T06:34:55.682Z,124.44
2022-11-24T06:35:55.668Z,124.07
2022-11-24T06:36:55.655Z,123.33
2022-11-24T06:37:55.704Z,123.06
2022-11-24T06:38:55.635Z,123.42
2022-11-24T06:39:55.621Z,123.61
2022-11-24T06:40:55.613Z,124.35
2022-11-24T06:41:55.617Z,124.91
2022-11-24T06:42:55.578Z,125.47
2022-11-24T06:43:55.567Z,125.57
2022-11-24T06:44:55.587Z,125.85
2022-11-24T06:45:55.636Z,127.39
2022-11-24T06:46:55.561Z,127.49
2022-11-24T06:47:55.581Z,128.68
2022-11-24T06:48:55.525Z,129.58
2022-11-24T06:49:55.506Z,130.09
2022-11-24T06:50:55.601Z,130.90
2022-11-24T06:51:55.495Z,132.47
2022-11-24T06:52:55.498Z,133.32
2022-11-24T06:53:55.517Z,133.11
2022-11-24T06:54:55.507Z,133.96
2022-11-24T06:55:55.462Z,135.16
2022-11-24T06:56:55.648Z,134.62
2022-11-24T06:57:55.487Z,134.62
2022-11-24T06:58:55.467Z,134.62
2022-11-24T06:59:55.442Z,134.51
2022-11-24T07:00:55.536Z,134.51
2022-11-24T07:01:55.442Z,134.40
2022-11-24T07:02:55.448Z,134.83
2022-11-24T07:03:55.398Z,134.62
2022-11-24T07:04:55.432Z,135.05
2022-11-24T07:05:55.378Z,136.16
2022-11-24T07:06:55.382Z,136.94
2022-11-24T07:07:55.374Z,137.28
2022-11-24T07:08:55.336Z,136.27
2022-11-24T07:09:55.331Z,136.49
2022-11-24T07:10:55.302Z,135.94
2022-11-24T07:11:55.312Z,135.71
2022-11-24T07:12:55.333Z,135.82
2022-11-24T07:13:59.867Z,134.72
2022-11-24T07:14:55.299Z,134.51
2022-11-24T07:15:55.274Z,134.94
2022-11-24T07:16:55.261Z,135.49
2022-11-24T07:17:55.238Z,136.27
2022-11-24T07:18:55.253Z,137.06
2022-11-24T07:19:55.224Z,137.40
2022-11-24T07:20:55.235Z,140.18
2022-11-24T07:21:55.290Z,140.77
2022-11-24T07:22:55.189Z,143.20
2022-11-24T07:23:55.187Z,145.20
2022-11-24T07:24:55.160Z,146.73
2022-11-24T07:25:55.172Z,148.84
2022-11-24T07:26:55.178Z,150.32
2022-11-24T07:27:55.139Z,148.17
2022-11-24T07:28:55.140Z,149.10
2022-11-24T07:29:55.157Z,150.45
2022-11-24T07:30:55.102Z,152.24
2022-11-24T07:31:55.179Z,153.08
2022-11-24T07:32:55.109Z,154.51
2022-11-24T07:33:55.133Z,154.36
2022-11-24T07:34:55.125Z,154.94
2022-11-24T07:35:55.072Z,155.81
2022-11-24T07:36:55.048Z,155.52
2022-11-24T07:37:55.656Z,156.10
2022-11-24T07:38:55.031Z,154.08
2022-11-24T07:39:55.016Z,154.36
2022-11-24T07:40:55.127Z,155.08
2022-11-24T07:41:55.024Z,154.51
2022-11-24T07:42:54.984Z,154.65
2022-11-24T07:43:55.009Z,156.10
2022-11-24T07:44:54.971Z,155.66
2022-11-24T07:45:55.032Z,156.54
2022-11-24T07:46:54.983Z,155.23
2022-11-24T07:47:54.954Z,156.25
2022-11-24T07:48:54.918Z,154.51
2022-11-24T07:49:54.926Z,156.25
2022-11-24T07:50:56.285Z,155.23
2022-11-24T07:51:54.965Z,155.96
2022-11-24T07:52:54.901Z,155.52
2022-11-24T07:53:54.889Z,157.73
2022-11-24T07:54:54.890Z,158.79
2022-11-24T07:55:54.900Z,158.63
2022-11-24T07:56:54.861Z,157.88
2022-11-24T07:57:54.852Z,159.55
2022-11-24T07:58:54.846Z,159.24
2022-11-24T07:59:54.846Z,159.85
2022-11-24T08:00:54.803Z,157.43
2022-11-24T08:01:54.856Z,157.28
2022-11-24T08:02:54.819Z,157.88
2022-11-24T08:03:54.871Z,161.25
2022-11-24T08:04:54.764Z,162.04
2022-11-24T08:06:22.475Z,163.47
2022-11-24T08:06:54.867Z,163.95
2022-11-24T08:07:54.820Z,165.42
2022-11-24T08:08:54.724Z,165.09
2022-11-24T08:09:54.726Z,165.42
2022-11-24T08:10:54.746Z,163.63
2022-11-24T08:11:54.712Z,163.47
2022-11-24T08:12:54.746Z,162.51
2022-11-24T08:13:54.677Z,161.88
2022-11-24T08:14:54.680Z,160.78
2022-11-24T08:15:54.685Z,160.32
2022-11-24T08:16:54.736Z,160.32
2022-11-24T08:17:54.677Z,159.40
2022-11-24T08:18:54.658Z,159.55
2022-11-24T08:19:54.644Z,156.69
2022-11-24T08:20:54.679Z,155.52
2022-11-24T08:21:54.652Z,154.36
2022-11-24T08:22:54.628Z,153.08
2022-11-24T08:23:54.601Z,152.52
2022-11-24T08:24:54.581Z,152.10
2022-11-24T08:25:56.998Z,151.69
2022-11-24T08:26:54.596Z,151.14
2022-11-24T08:27:54.562Z,150.32
2022-11-24T08:28:54.555Z,149.37
2022-11-24T08:29:54.516Z,147.51
2022-11-24T08:30:54.513Z,147.51
2022-11-24T08:31:55.111Z,146.99
2022-11-24T08:32:54.544Z,147.91
2022-11-24T08:33:54.493Z,146.09
2022-11-24T08:34:59.686Z,145.32
2022-11-24T08:35:54.463Z,147.65
2022-11-24T08:36:54.466Z,148.04
2022-11-24T08:37:54.435Z,148.44
2022-11-24T08:38:54.474Z,148.04
2022-11-24T08:39:54.448Z,147.51
2022-11-24T08:40:54.429Z,146.22
2022-11-24T08:41:54.479Z,145.96
2022-11-24T08:42:54.408Z,147.12
2022-11-24T08:43:54.387Z,147.51
2022-11-24T08:44:59.043Z,147.78
2022-11-24T08:45:54.413Z,147.91
2022-11-24T08:46:54.455Z,147.78
2022-11-24T08:47:54.352Z,147.25
2022-11-24T08:48:54.361Z,147.12
2022-11-24T08:49:54.327Z,146.22
2022-11-24T08:50:54.320Z,143.94
2022-11-24T08:51:54.304Z,143.57
2022-11-24T08:52:54.311Z,143.57
2022-11-24T08:53:54.309Z,144.06
2022-11-24T08:54:54.296Z,144.44
2022-11-24T08:55:54.261Z,143.57
2022-11-24T08:56:54.254Z,144.94
2022-11-24T08:57:54.289Z,144.31
2022-11-24T08:58:54.283Z,145.58
2022-11-24T08:59:54.255Z,148.84
2022-11-24T09:00:54.286Z,150.18
2022-11-24T09:01:54.305Z,150.59
2022-11-24T09:02:54.198Z,148.84
2022-11-24T09:03:54.246Z,148.84
2022-11-24T09:04:54.257Z,149.91
2022-11-24T09:05:54.154Z,150.18
2022-11-24T09:06:54.161Z,155.23
2022-11-24T09:07:54.213Z,158.33
2022-11-24T09:08:54.146Z,161.25
2022-11-24T09:09:54.124Z,160.94
2022-11-24T09:10:54.137Z,162.04
2022-11-24T09:11:54.135Z,162.04
2022-11-24T09:12:54.114Z,163.31
2022-11-24T09:13:54.080Z,162.20
2022-11-24T09:14:54.071Z,161.09
2022-11-24T09:15:54.111Z,161.41
2022-11-24T09:16:54.114Z,162.04
2022-11-24T09:17:54.136Z,161.25
2022-11-24T09:18:54.027Z,161.25
2022-11-24T09:19:54.038Z,159.85
2022-11-24T09:20:54.058Z,160.16
2022-11-24T09:21:54.083Z,160.32
2022-11-24T09:22:54.003Z,158.79
2022-11-24T09:23:54.006Z,160.32
2022-11-24T09:24:53.973Z,159.09
2022-11-24T09:25:53.992Z,159.85
2022-11-24T09:26:53.961Z,160.01
2022-11-24T09:27:53.975Z,161.72
2022-11-24T09:28:53.977Z,164.77
2022-11-24T09:29:53.930Z,168.95
2022-11-24T09:30:53.973Z,172.64
2022-11-24T09:31:53.915Z,176.86
2022-11-24T09:32:53.942Z,180.90
2022-11-24T09:33:53.933Z,184.61
2022-11-24T09:34:53.886Z,184.92
2022-11-24T09:35:53.964Z,187.47
2022-11-24T09:36:53.877Z,187.57
2022-11-24T09:37:53.861Z,186.08
2022-11-24T09:38:53.879Z,188.11
2022-11-24T09:39:53.832Z,189.97
2022-11-24T09:40:55.051Z,190.08
2022-11-24T09:41:53.822Z,190.08
2022-11-24T09:42:53.934Z,188.01
2022-11-24T09:43:53.818Z,190.30
2022-11-24T09:44:53.795Z,188.98
2022-11-24T09:46:09.122Z,189.20
2022-11-24T09:46:53.803Z,191.53
2022-11-24T09:47:53.809Z,194.38
2022-11-24T09:48:53.740Z,196.24
2022-11-24T09:49:53.753Z,198.63
2022-11-24T09:50:53.750Z,201.69
2022-11-24T09:51:53.702Z,205.24
2022-11-24T09:52:53.698Z,212.58
2022-11-24T09:53:53.708Z,212.17
2022-11-24T09:54:53.697Z,212.58
2022-11-24T09:55:53.684Z,214.68
2022-11-24T09:56:53.651Z,209.31
2022-11-24T09:57:53.656Z,207.59
2022-11-24T09:58:53.667Z,211.07
2022-11-24T09:59:53.621Z,211.21
2022-11-24T10:00:53.609Z,215.67
2022-11-24T10:01:53.698Z,219.58
2022-11-24T10:02:53.617Z,223.18
2022-11-24T10:03:53.603Z,223.18
2022-11-24T10:04:53.653Z,224.09
2022-11-24T10:05:53.613Z,225.64
2022-11-24T10:06:53.570Z,235.90
2022-11-24T10:07:53.637Z,246.76
2022-11-24T10:08:53.656Z,263.05
2022-11-24T10:09:53.534Z,305.87
2022-11-24T10:10:53.556Z,344.93
2022-11-24T10:11:53.503Z,388.73
2022-11-24T10:12:53.486Z,409.07
2022-11-24T10:13:53.507Z,418.61
2022-11-24T10:14:53.467Z,449.79
2022-11-24T10:15:53.567Z,464.89
2022-11-24T10:16:53.456Z,507.90
2022-11-24T10:17:53.442Z,542.31
2022-11-24T10:18:53.442Z,557.80
2022-11-24T10:19:53.425Z,574.19
2022-11-24T10:20:53.409Z,568.29
2022-11-24T10:21:53.413Z,547.68
2022-11-24T10:22:53.389Z,551.32
2022-11-24T10:23:53.435Z,570.73
2022-11-24T10:24:53.443Z,580.71
2022-11-24T10:25:53.372Z,593.16
2022-11-24T10:26:53.347Z,604.49
2022-11-24T10:27:53.434Z,627.92
2022-11-24T10:28:53.332Z,665.00
2022-11-24T10:29:53.342Z,698.57
2022-11-24T10:30:53.341Z,701.52
2022-11-24T10:31:53.309Z,684.18
2022-11-24T10:32:53.307Z,672.40
2022-11-24T10:33:53.293Z,684.88
2022-11-24T10:34:53.290Z,720.54
2022-11-24T10:35:53.285Z,795.93
2022-11-24T10:36:53.358Z,841.77
2022-11-24T10:37:53.243Z,853.11
2022-11-24T10:38:53.223Z,873.85
2022-11-24T10:39:58.565Z,917.87
2022-11-24T10:40:57.705Z,928.77
2022-11-24T10:41:53.201Z,936.62
2022-11-24T10:42:53.215Z,921.05
2022-11-24T10:43:53.182Z,967.27
2022-11-24T10:44:53.187Z,971.51
2022-11-24T10:45:53.219Z,978.66
2022-11-24T10:46:53.263Z,959.59
2022-11-24T10:47:53.137Z,965.87
2022-11-24T10:48:53.160Z,983.00
2022-11-24T10:49:53.130Z,989.58
2022-11-24T10:50:53.116Z,991.06
2022-11-24T10:51:53.100Z,971.51
2022-11-24T10:52:53.087Z,953.40
2022-11-24T10:53:53.086Z,958.90
2022-11-24T10:54:53.092Z,943.93
2022-11-24T10:55:53.088Z,957.52
2022-11-24T10:56:53.055Z,967.98
2022-11-24T10:57:53.076Z,967.98
2022-11-24T10:58:53.045Z,994.76
2022-11-24T10:59:53.020Z,1027.03
2022-11-24T11:00:53.002Z,1032.61
2022-11-24T11:01:53.226Z,1021.51
2022-11-24T11:02:53.033Z,1012.95
2022-11-24T11:03:52.999Z,1008.34
2022-11-24T11:04:52.998Z,998.50
2022-11-24T11:05:52.955Z,985.18
2022-11-24T11:06:52.961Z,988.85
2022-11-24T11:07:53.020Z,985.91
2022-11-24T11:08:52.957Z,970.80
2022-11-24T11:09:53.018Z,994.02
2022-11-24T11:10:52.969Z,995.51
2022-11-24T11:11:53.013Z,1023.08
2022-11-24T11:12:52.926Z,1041.50
2022-11-24T11:13:55.711Z,1075.18
2022-11-24T11:14:53.049Z,1089.27
2022-11-24T11:15:52.981Z,1095.55
2022-11-24T11:16:52.913Z,1083.06
2022-11-24T11:17:52.913Z,1092.85
2022-11-24T11:18:52.883Z,1087.49
2022-11-24T11:19:58.634Z,1064.00
2022-11-24T11:20:52.906Z,1054.72
2022-11-24T11:21:52.846Z,1057.23
2022-11-24T11:22:52.827Z,1039.87
2022-11-24T11:23:52.849Z,1020.72
2022-11-24T11:24:52.800Z,1001.51
2022-11-24T11:25:52.775Z,993.28
2022-11-24T11:26:52.788Z,959.59
2022-11-24T11:27:52.811Z,940.59
2022-11-24T11:28:52.832Z,935.96
2022-11-24T11:34:10.681Z,876.15
2022-11-24T11:34:52.705Z,882.55
2022-11-24T11:35:52.738Z,902.92
2022-11-24T11:36:52.696Z,923.61
2022-11-24T11:37:52.696Z,942.59
2022-11-24T11:38:52.662Z,954.09
2022-11-24T11:39:52.671Z,984.46
2022-11-24T11:40:52.656Z,985.91
2022-11-24T11:41:52.633Z,986.65
2022-11-24T11:43:08.049Z,983.00
2022-11-24T11:43:52.646Z,986.65
2022-11-24T11:44:52.595Z,977.22
2022-11-24T11:45:52.686Z,1001.51
2022-11-24T11:46:52.661Z,1004.53
2022-11-24T11:47:52.585Z,990.32
2022-11-24T11:48:52.591Z,985.18
2022-11-24T11:49:52.636Z,977.94
2022-11-24T11:51:21.741Z,988.11
2022-11-24T11:51:52.548Z,1019.94
2022-11-24T11:52:52.518Z,1019.16
2022-11-24T11:53:52.672Z,994.02
2022-11-24T11:54:52.528Z,961.68
2022-11-24T11:55:52.522Z,920.41
2022-11-24T11:56:52.475Z,901.69
2022-11-24T11:57:52.483Z,916.61
2022-11-24T11:58:52.458Z,890.82
2022-11-24T11:59:52.414Z,849.30
2022-11-24T12:00:52.407Z,821.49
2022-11-24T12:01:52.412Z,790.72
2022-11-24T12:02:53.942Z,760.43
2022-11-24T12:03:52.485Z,758.27
2022-11-24T12:04:52.433Z,767.90
2022-11-24T12:05:52.346Z,731.65
2022-11-24T12:06:52.391Z,684.88
2022-11-24T12:07:52.413Z,611.73
2022-11-24T12:09:18.642Z,552.23
2022-11-24T12:09:52.341Z,495.03
2022-11-24T12:10:52.300Z,440.83
2022-11-24T12:11:52.282Z,393.10
2022-11-24T12:12:52.357Z,355.81
2022-11-24T12:13:52.273Z,326.98
2022-11-24T12:14:52.303Z,305.59
2022-11-24T12:15:52.284Z,280.90
2022-11-24T12:16:52.242Z,261.15
2022-11-24T12:17:52.308Z,245.46
2022-11-24T12:18:59.538Z,229.60
2022-11-24T12:19:52.235Z,218.40
2022-11-24T12:20:52.199Z,211.62
2022-11-24T12:21:52.277Z,204.98
2022-11-24T12:22:52.203Z,200.70
2022-11-24T12:23:52.211Z,197.67
2022-11-24T12:24:52.190Z,195.77
2022-11-24T12:25:52.174Z,195.54
2022-11-24T12:26:52.193Z,196.96
2022-11-24T12:27:52.134Z,192.77
2022-11-24T12:28:52.206Z,191.76
2022-11-24T12:29:52.146Z,189.42
2022-11-24T12:30:52.183Z,184.92
2022-11-24T12:31:52.136Z,186.19
2022-11-24T12:32:52.102Z,190.53
2022-11-24T12:33:55.357Z,195.31
2022-11-24T12:34:52.085Z,195.19
2022-11-24T12:35:52.078Z,194.15
2022-11-24T12:36:52.069Z,193.23